EZY86MJ EGCC-LGKO
Flight info
| Callsign | EZY86MJ |
|---|---|
| Flight time | N/A |
| Altitude | 35000 |
| Route | DESIG L603 DOLAS DCT NAVPI DCT DODEN DCT NEGIX DCT DINKU DCT BESNI/N0447F370 DCT LATLO DCT OBEDI DCT BERTA DCT TEBLI DCT TIVNU DCT MEDUX UM867 KOGAT DCT ERANA UL737 TSL UN130 MES UN139 LURUS L995 KOPAR |
| Aircraft | A320/M-SDE3FGHIRWY/LB1 |
Departure
| Time | 2026-05-04 10:02 |
|---|---|
| Airport | Manchester Airport (EGCC) |
Arrival
| Time | N/A |
|---|---|
| Airport | Kos International Airport "Ippokratis" (LGKO) |
| Time | Latitude | Longitude | Altitude | Speed | Heading |
|---|---|---|---|---|---|
| 2026-05-04 09:18 | 53.36866 | -2.28845 | 255 ft | 0 kts | 135° |
| 2026-05-04 09:46 | 53.36886 | -2.28879 | 255 ft | 3 kts | 155° |
| 2026-05-04 09:46 | 53.36900 | -2.28881 | 255 ft | 3 kts | 218° |
| 2026-05-04 09:46 | 53.36911 | -2.28866 | 255 ft | 1 kts | 224° |
| 2026-05-04 09:47 | 53.36921 | -2.28849 | 255 ft | 2 kts | 224° |
| 2026-05-04 09:47 | 53.36923 | -2.28845 | 255 ft | 0 kts | 224° |
| 2026-05-04 09:52 | 53.36920 | -2.28850 | 255 ft | 4 kts | 224° |
| 2026-05-04 09:52 | 53.36864 | -2.28943 | 255 ft | 13 kts | 224° |
| 2026-05-04 09:53 | 53.36798 | -2.29030 | 255 ft | 11 kts | 202° |
| 2026-05-04 09:53 | 53.36733 | -2.29024 | 255 ft | 9 kts | 141° |
| 2026-05-04 09:53 | 53.36683 | -2.28940 | 255 ft | 10 kts | 134° |
| 2026-05-04 09:53 | 53.36630 | -2.28888 | 255 ft | 8 kts | 155° |
| 2026-05-04 09:54 | 53.36589 | -2.28810 | 255 ft | 9 kts | 109° |
| 2026-05-04 09:54 | 53.36563 | -2.28691 | 255 ft | 12 kts | 119° |
| 2026-05-04 09:54 | 53.36507 | -2.28595 | 255 ft | 13 kts | 135° |
| 2026-05-04 09:54 | 53.36430 | -2.28465 | 255 ft | 17 kts | 135° |
| 2026-05-04 09:55 | 53.36345 | -2.28322 | 255 ft | 18 kts | 134° |
| 2026-05-04 09:55 | 53.36255 | -2.28170 | 255 ft | 19 kts | 134° |
| 2026-05-04 09:55 | 53.36163 | -2.28013 | 255 ft | 17 kts | 135° |
| 2026-05-04 09:55 | 53.36084 | -2.27881 | 255 ft | 11 kts | 134° |
| 2026-05-04 09:56 | 53.36024 | -2.27831 | 255 ft | 9 kts | 176° |
| 2026-05-04 09:56 | 53.36014 | -2.27830 | 255 ft | 0 kts | 176° |
| 2026-05-04 09:56 | 53.36009 | -2.27830 | 255 ft | 4 kts | 178° |
| 2026-05-04 09:56 | 53.35975 | -2.27835 | 255 ft | 4 kts | 190° |
| 2026-05-04 09:57 | 53.35965 | -2.27838 | 255 ft | 5 kts | 190° |
| 2026-05-04 09:57 | 53.35915 | -2.27849 | 255 ft | 11 kts | 186° |
| 2026-05-04 09:57 | 53.35827 | -2.27862 | 255 ft | 13 kts | 187° |
| 2026-05-04 09:57 | 53.35739 | -2.27879 | 254 ft | 12 kts | 186° |
| 2026-05-04 09:58 | 53.35648 | -2.27891 | 250 ft | 13 kts | 186° |
| 2026-05-04 09:58 | 53.35581 | -2.27997 | 247 ft | 16 kts | 231° |
| 2026-05-04 09:58 | 53.35491 | -2.28129 | 243 ft | 19 kts | 208° |
| 2026-05-04 10:00 | 53.34655 | -2.29338 | 202 ft | 22 kts | 184° |
| 2026-05-04 10:00 | 53.34541 | -2.29286 | 205 ft | 14 kts | 110° |
| 2026-05-04 10:02 | 53.37641 | -2.22761 | 1813 ft | 177 kts | 52° |
| 2026-05-04 10:04 | 53.44829 | -2.07509 | 4983 ft | 263 kts | 51° |
| 2026-05-04 10:04 | 53.45958 | -2.05098 | 5003 ft | 262 kts | 51° |
| 2026-05-04 10:04 | 53.47086 | -2.02690 | 5010 ft | 263 kts | 51° |
| 2026-05-04 10:04 | 53.48203 | -2.00307 | 5057 ft | 266 kts | 51° |
| 2026-05-04 10:05 | 53.49352 | -1.97867 | 5901 ft | 267 kts | 51° |
| 2026-05-04 10:05 | 53.50519 | -1.95411 | 6743 ft | 271 kts | 51° |
| 2026-05-04 10:05 | 53.51539 | -1.92725 | 7518 ft | 276 kts | 66° |
| 2026-05-04 10:05 | 53.52081 | -1.89606 | 8302 ft | 281 kts | 82° |
| 2026-05-04 10:06 | 53.52115 | -1.86296 | 9070 ft | 287 kts | 97° |
| 2026-05-04 10:06 | 53.51644 | -1.83013 | 9853 ft | 292 kts | 107° |
| 2026-05-04 10:06 | 53.51057 | -1.79700 | 10416 ft | 304 kts | 107° |
| 2026-05-04 10:08 | 53.46820 | -1.55805 | 12956 ft | 381 kts | 107° |
| 2026-05-04 10:08 | 53.46057 | -1.51519 | 13614 ft | 385 kts | 107° |
| 2026-05-04 10:08 | 53.45279 | -1.47191 | 14215 ft | 389 kts | 107° |
| 2026-05-04 10:08 | 53.44492 | -1.42834 | 14804 ft | 392 kts | 107° |
| 2026-05-04 10:09 | 53.43699 | -1.38449 | 15404 ft | 394 kts | 107° |
| 2026-05-04 10:09 | 53.42898 | -1.34029 | 15994 ft | 397 kts | 107° |
| 2026-05-04 10:09 | 53.42091 | -1.29583 | 16579 ft | 400 kts | 107° |
| 2026-05-04 10:09 | 53.41277 | -1.25091 | 17170 ft | 403 kts | 108° |
| 2026-05-04 10:10 | 53.40471 | -1.20649 | 17743 ft | 406 kts | 108° |
| 2026-05-04 10:10 | 53.39646 | -1.16102 | 18319 ft | 409 kts | 108° |
| 2026-05-04 10:10 | 53.38815 | -1.11524 | 18818 ft | 412 kts | 108° |
| 2026-05-04 10:10 | 53.37975 | -1.06918 | 19301 ft | 415 kts | 108° |
| 2026-05-04 10:11 | 53.37125 | -1.02287 | 19791 ft | 417 kts | 108° |
| 2026-05-04 10:11 | 53.36268 | -0.97635 | 20271 ft | 419 kts | 108° |
| 2026-05-04 10:11 | 53.35402 | -0.92950 | 20737 ft | 422 kts | 108° |
| 2026-05-04 10:11 | 53.34531 | -0.88251 | 21196 ft | 424 kts | 108° |
| 2026-05-04 10:12 | 53.33654 | -0.83532 | 21644 ft | 426 kts | 108° |
| 2026-05-04 10:12 | 53.32770 | -0.78787 | 22087 ft | 428 kts | 108° |
| 2026-05-04 10:12 | 53.31879 | -0.74024 | 22494 ft | 430 kts | 108° |
| 2026-05-04 10:12 | 53.30983 | -0.69236 | 22894 ft | 432 kts | 108° |
| 2026-05-04 10:13 | 53.30083 | -0.64425 | 23283 ft | 435 kts | 108° |
| 2026-05-04 10:13 | 53.29180 | -0.59590 | 23661 ft | 437 kts | 108° |
| 2026-05-04 10:13 | 53.28268 | -0.54732 | 23979 ft | 439 kts | 108° |
| 2026-05-04 10:13 | 53.27357 | -0.49911 | 24305 ft | 440 kts | 108° |
| 2026-05-04 10:14 | 53.26431 | -0.45023 | 24628 ft | 442 kts | 108° |
| 2026-05-04 10:14 | 53.25501 | -0.40117 | 24946 ft | 444 kts | 109° |
| 2026-05-04 10:16 | 53.18811 | -0.05303 | 26854 ft | 457 kts | 109° |
| 2026-05-04 10:16 | 53.17836 | -0.00254 | 27091 ft | 458 kts | 109° |
| 2026-05-04 10:16 | 53.16855 | 0.04829 | 27330 ft | 460 kts | 109° |
| 2026-05-04 10:16 | 53.15884 | 0.09848 | 27557 ft | 462 kts | 109° |
| 2026-05-04 10:17 | 53.14895 | 0.14944 | 27821 ft | 462 kts | 109° |
| 2026-05-04 10:17 | 53.13903 | 0.20032 | 28146 ft | 461 kts | 109° |
| 2026-05-04 10:19 | 53.06890 | 0.55419 | 30302 ft | 459 kts | 110° |
| 2026-05-04 10:19 | 53.05896 | 0.60396 | 30561 ft | 459 kts | 110° |
| 2026-05-04 10:19 | 53.04890 | 0.65424 | 30807 ft | 458 kts | 110° |
| 2026-05-04 10:19 | 53.03877 | 0.70456 | 31072 ft | 458 kts | 111° |
| 2026-05-04 10:20 | 53.02864 | 0.75473 | 31337 ft | 458 kts | 111° |
| 2026-05-04 10:20 | 53.01849 | 0.80495 | 31602 ft | 457 kts | 111° |
| 2026-05-04 10:20 | 53.00835 | 0.85501 | 31862 ft | 457 kts | 111° |
| 2026-05-04 10:20 | 52.99819 | 0.90500 | 32110 ft | 457 kts | 111° |
| 2026-05-04 10:21 | 52.98800 | 0.95493 | 32387 ft | 456 kts | 111° |
| 2026-05-04 10:21 | 52.97782 | 1.00469 | 32657 ft | 456 kts | 111° |
| 2026-05-04 10:21 | 52.96727 | 1.05434 | 32917 ft | 455 kts | 112° |
| 2026-05-04 10:21 | 52.95628 | 1.10351 | 33190 ft | 454 kts | 113° |
| 2026-05-04 10:22 | 52.93373 | 1.20119 | 33743 ft | 453 kts | 114° |
| 2026-05-04 10:22 | 52.92258 | 1.24923 | 34011 ft | 452 kts | 114° |
| 2026-05-04 10:22 | 52.91135 | 1.29790 | 34243 ft | 452 kts | 114° |
| 2026-05-04 10:23 | 52.90018 | 1.34659 | 34459 ft | 452 kts | 114° |
| 2026-05-04 10:23 | 52.88904 | 1.39547 | 34655 ft | 452 kts | 113° |
| 2026-05-04 10:25 | 52.81020 | 1.73812 | 35044 ft | 458 kts | 114° |
| 2026-05-04 10:25 | 52.78725 | 1.83654 | 35040 ft | 458 kts | 115° |
| 2026-05-04 10:26 | 52.76438 | 1.93410 | 35040 ft | 458 kts | 115° |
| 2026-05-04 10:26 | 52.74130 | 2.03207 | 35034 ft | 458 kts | 115° |
| 2026-05-04 10:27 | 52.71818 | 2.12989 | 35033 ft | 458 kts | 115° |
| 2026-05-04 10:27 | 52.69503 | 2.22776 | 35033 ft | 457 kts | 115° |
| 2026-05-04 10:28 | 52.67178 | 2.32530 | 35030 ft | 457 kts | 116° |
| 2026-05-04 10:28 | 52.64840 | 2.42260 | 35031 ft | 457 kts | 116° |
| 2026-05-04 10:29 | 52.62512 | 2.51922 | 35027 ft | 456 kts | 116° |
| 2026-05-04 10:29 | 52.60168 | 2.61620 | 35031 ft | 456 kts | 116° |
| 2026-05-04 10:30 | 52.57821 | 2.71300 | 35024 ft | 455 kts | 116° |
| 2026-05-04 10:30 | 52.55463 | 2.80966 | 35022 ft | 455 kts | 116° |
| 2026-05-04 10:31 | 52.52686 | 2.90143 | 35021 ft | 450 kts | 123° |
| 2026-05-04 10:32 | 52.42619 | 3.20106 | 35006 ft | 450 kts | 124° |
| 2026-05-04 10:33 | 52.39580 | 3.29082 | 34999 ft | 450 kts | 124° |
| 2026-05-04 10:33 | 52.36534 | 3.38044 | 34995 ft | 450 kts | 124° |
| 2026-05-04 10:34 | 52.33480 | 3.47001 | 34992 ft | 450 kts | 125° |
| 2026-05-04 10:34 | 52.30424 | 3.55938 | 34996 ft | 450 kts | 125° |
| 2026-05-04 10:35 | 52.27373 | 3.64795 | 34997 ft | 450 kts | 125° |
| 2026-05-04 10:35 | 52.24301 | 3.73701 | 34994 ft | 450 kts | 125° |
| 2026-05-04 10:36 | 52.21221 | 3.82615 | 34996 ft | 450 kts | 126° |
| 2026-05-04 10:36 | 52.18142 | 3.91492 | 34999 ft | 449 kts | 126° |
| 2026-05-04 10:37 | 52.15063 | 4.00349 | 35002 ft | 449 kts | 126° |
| 2026-05-04 10:37 | 52.11996 | 4.09129 | 34996 ft | 449 kts | 126° |
| 2026-05-04 10:39 | 52.01166 | 4.39847 | 34994 ft | 447 kts | 126° |
| 2026-05-04 10:40 | 51.98056 | 4.48603 | 34993 ft | 447 kts | 127° |
| 2026-05-04 10:40 | 51.94948 | 4.57343 | 34994 ft | 447 kts | 127° |
| 2026-05-04 10:41 | 51.91834 | 4.66067 | 34984 ft | 446 kts | 127° |
| 2026-05-04 10:41 | 51.88704 | 4.74760 | 34978 ft | 447 kts | 127° |
| 2026-05-04 10:42 | 51.85591 | 4.83395 | 34972 ft | 447 kts | 127° |
| 2026-05-04 10:42 | 51.82456 | 4.92080 | 34974 ft | 447 kts | 127° |
| 2026-05-04 10:43 | 51.79315 | 5.00763 | 34974 ft | 447 kts | 127° |
| 2026-05-04 10:45 | 51.66658 | 5.35346 | 34970 ft | 448 kts | 127° |
| 2026-05-04 10:45 | 51.63470 | 5.43987 | 34975 ft | 449 kts | 127° |
| 2026-05-04 10:46 | 51.60276 | 5.52637 | 34972 ft | 449 kts | 127° |
| 2026-05-04 10:46 | 51.57095 | 5.61211 | 34972 ft | 449 kts | 127° |
| 2026-05-04 10:47 | 51.53879 | 5.69825 | 34973 ft | 450 kts | 127° |
| 2026-05-04 10:47 | 51.50653 | 5.78447 | 34971 ft | 450 kts | 127° |
| 2026-05-04 10:49 | 51.37685 | 6.12880 | 34973 ft | 451 kts | 127° |
| 2026-05-04 10:50 | 51.34440 | 6.21407 | 34970 ft | 451 kts | 127° |
| 2026-05-04 10:52 | 51.21347 | 6.55579 | 34981 ft | 451 kts | 127° |
| 2026-05-04 10:52 | 51.18060 | 6.64094 | 34988 ft | 451 kts | 127° |
| 2026-05-04 10:54 | 51.04841 | 6.97998 | 34976 ft | 450 kts | 127° |
| 2026-05-04 10:56 | 50.91548 | 7.31684 | 34975 ft | 451 kts | 127° |
| 2026-05-04 10:57 | 50.88196 | 7.40094 | 34983 ft | 451 kts | 127° |
| 2026-05-04 10:57 | 50.84861 | 7.48445 | 34974 ft | 451 kts | 127° |
| 2026-05-04 10:58 | 50.81500 | 7.56833 | 34972 ft | 451 kts | 127° |
| 2026-05-04 10:58 | 50.78127 | 7.65226 | 34985 ft | 452 kts | 127° |
| 2026-05-04 10:59 | 50.74758 | 7.73601 | 34984 ft | 452 kts | 127° |
| 2026-05-04 10:59 | 50.71378 | 7.81961 | 34993 ft | 452 kts | 127° |
| 2026-05-04 11:00 | 50.68009 | 7.90251 | 34999 ft | 452 kts | 127° |
| 2026-05-04 11:02 | 50.53562 | 8.22434 | 34990 ft | 448 kts | 133° |
| 2026-05-04 11:05 | 50.23112 | 8.77738 | 34997 ft | 447 kts | 137° |
| 2026-05-04 11:06 | 50.18856 | 8.84828 | 34991 ft | 447 kts | 137° |
| 2026-05-04 11:06 | 50.14630 | 8.91875 | 34990 ft | 447 kts | 137° |